Airborne Airpark
KILN : rendu visible

Aérodrome :











RETROUVEZ-NOUS SUR...

 
LOGIN :

S'inscrire | Disclaimer

   EN    FR    IT 

 









Légende :    VFR   VFR Marginal   IFR   IFR Intensif   IFR Très Intensif
Visi : 
Plafond : 
>= 8 km
>= 3000ft
5 à 8 km
1000 à 3000 ft
1500m à 5 km
500 à 1000 ft
800 à 1500m
200 à 500 ft
< 800m
< 200 ft
Symboles :   Orages  Brouillard  Fortes neiges  Fortes précipitations  Vent > 20 kt






- Altitude de l'aérodrome : 1077 ft


KILN - Airborne Airpark

DERNIER METAR :
  • 010522Z AUTO 34007KT 8SM OVC007 04/03 A2988 RMK AO2 CIG 005V011 T00390033

METARs EXPIRÉS :
  • 010454Z AUTO 36008KT 9SM OVC011 04/03 A2988 RMK AO2 SLP132 T00440028 400780033
  • 010354Z AUTO 36007KT 10SM OVC013 05/03 A2988 RMK AO2 RAB0256E06 SLP133 P0000 T00500028
  • 010333Z AUTO 01008KT 10SM BKN013 OVC034 05/03 A2988 RMK AO2 RAB0256E06 P0000 T00500028
  • 010310Z AUTO 01009KT 10SM SCT015 BKN032 OVC045 05/03 A2988 RMK AO2 RAB0256E06 P0000 T00500028
  • 010254Z AUTO 01005KT 10SM BKN014 OVC041 05/03 A2987 RMK AO2 RAE09 SLP133 P0000 60000 T00500028 50007

TAF KILN
Valide du 01 à 00h jusqu'au 02 à 00h UTC


312340Z 0100/0124 01010KT P6SM VCSH OVC035
FM010300 36008KT P6SM OVC025
FM010800 36008KT P6SM OVC015
TEMPO 0109/0113 OVC009
FM011500 35010KT P6SM OVC025
FM011900 35010KT P6SM BKN040



MET'MAP, la Météo Aéronautique d'un coup d'oeil ! - Copyright ORBIFLY Décembre 2007 - Disclaimer

ORBIFLY MET'MAP TEAM :

Programmation & Développement : Alexandra Zaïnal
Sur une idée originale de : Baudouin d'Aumeries
Assistance à la programmation : Marc-Olivier Méhu
Soutien technique & logistique : Manuel Goepfert

Contact : metmap@orbifly.com




SOURCES & CREDITS :

   NOAA       Earth
Advisory